createdAt,value
2018-10-03T15:00:39.252Z,41.30
2018-10-03T15:03:05.440Z,41.40
2018-10-03T15:05:37.350Z,41.40
2018-10-03T15:08:03.666Z,41.40
2018-10-03T15:10:31.220Z,41.30
2018-10-03T15:15:29.696Z,41.30
2018-10-03T15:17:56.064Z,41.30
2018-10-03T15:20:22.379Z,41.30
2018-10-03T15:32:56.089Z,41.00
2018-10-03T15:35:22.289Z,41.20
2018-10-03T15:37:49.536Z,41.20
2018-10-03T15:42:47.791Z,41.00
2018-10-03T15:45:14.163Z,41.10
2018-10-03T15:47:40.626Z,41.10
2018-10-03T15:52:38.677Z,41.20
2018-10-03T15:55:04.932Z,41.10
2018-10-03T16:00:02.655Z,41.20
2018-10-03T16:02:28.894Z,41.20
2018-10-03T16:04:55.824Z,40.60
2018-10-03T16:07:21.975Z,41.10
2018-10-03T16:09:49.217Z,41.10
2018-10-03T16:12:15.377Z,41.00
2018-10-03T16:14:41.529Z,41.10
2018-10-03T16:17:07.680Z,41.00
2018-10-03T16:19:33.950Z,41.00
2018-10-03T16:22:01.229Z,40.90
2018-10-03T16:24:27.434Z,40.90
2018-10-03T16:26:55.902Z,41.00
2018-10-03T16:29:22.776Z,41.00
2018-10-03T16:31:49.357Z,40.80
2018-10-03T16:34:16.412Z,40.90
2018-10-03T16:36:42.882Z,40.80
2018-10-03T16:39:09.241Z,40.90
2018-10-03T16:41:37.251Z,40.90
2018-10-03T16:46:34.884Z,40.90
2018-10-03T16:49:01.031Z,40.90
2018-10-03T16:51:27.674Z,40.90
2018-10-03T16:53:53.849Z,40.90
2018-10-03T16:56:19.993Z,41.00
2018-10-03T16:58:46.416Z,40.90
2018-10-03T17:03:49.257Z,40.70
2018-10-03T17:06:15.411Z,41.00
2018-10-03T17:08:43.436Z,40.90
2018-10-03T17:11:13.334Z,40.80
2018-10-03T17:13:39.601Z,41.50
2018-10-03T17:16:05.790Z,41.00
2018-10-03T17:18:31.975Z,41.10
2018-10-03T17:20:58.196Z,40.90
2018-10-03T17:23:24.356Z,40.90
2018-10-03T17:25:50.527Z,40.80
2018-10-03T17:28:16.684Z,40.90
2018-10-03T17:30:42.832Z,40.80
2018-10-03T17:33:08.993Z,40.90
2018-10-03T17:35:35.264Z,40.90
2018-10-03T17:38:01.416Z,40.90
2018-10-03T17:40:28.329Z,41.60
2018-10-03T17:42:54.798Z,40.90
2018-10-03T17:45:21.484Z,40.90
2018-10-03T17:47:47.639Z,40.90
2018-10-03T17:55:17.920Z,41.10
2018-10-03T17:57:44.171Z,40.90
2018-10-03T18:00:10.338Z,41.00
2018-10-03T18:05:09.781Z,41.00
2018-10-03T18:07:36.027Z,41.00
2018-10-03T18:12:34.224Z,40.90
2018-10-03T18:15:01.154Z,41.00
2018-10-03T18:17:27.421Z,41.00
2018-10-03T18:19:53.618Z,41.00
2018-10-03T18:22:20.638Z,40.90
2018-10-03T18:24:49.391Z,40.90
2018-10-03T18:27:19.805Z,40.80
2018-10-03T18:29:49.968Z,40.80
2018-10-03T18:32:16.183Z,40.90
2018-10-03T18:34:42.335Z,40.80
2018-10-03T18:37:13.335Z,41.00
2018-10-03T18:42:11.272Z,40.80
2018-10-03T18:44:37.539Z,40.90
2018-10-03T18:49:35.444Z,40.80
2018-10-03T18:52:01.670Z,40.70
2018-10-03T18:54:27.908Z,40.90
2018-10-03T18:56:56.404Z,40.90
2018-10-03T18:59:22.573Z,40.80
2018-10-03T19:01:49.495Z,40.90
2018-10-03T19:04:16.174Z,41.50
2018-10-03T19:06:42.424Z,40.80
2018-10-03T19:09:08.760Z,40.70
2018-10-03T19:11:34.912Z,40.90
2018-10-03T19:14:01.084Z,40.70
2018-10-03T19:16:27.414Z,40.60
2018-10-03T19:18:53.608Z,40.90
2018-10-03T19:21:19.754Z,40.80
2018-10-03T19:26:18.609Z,40.80
2018-10-03T19:28:44.921Z,40.60
2018-10-03T19:31:11.145Z,40.90
2018-10-03T19:33:37.375Z,40.80
2018-10-03T19:36:03.598Z,40.70
2018-10-03T19:38:29.859Z,40.60
2018-10-03T19:40:56.046Z,40.70
2018-10-03T19:43:22.968Z,40.70
2018-10-03T19:45:49.174Z,40.60
2018-10-03T19:48:16.348Z,40.70
2018-10-03T19:50:42.612Z,40.80
2018-10-03T19:53:08.765Z,40.80
2018-10-03T19:55:34.939Z,40.80
2018-10-03T19:58:01.092Z,40.80
2018-10-03T20:03:00.166Z,40.70
2018-10-03T20:05:27.113Z,40.60
2018-10-03T20:07:53.259Z,40.70
2018-10-03T20:10:19.499Z,40.60
2018-10-03T20:12:45.816Z,40.60
2018-10-03T20:15:15.406Z,40.80
2018-10-03T20:17:41.692Z,40.80
2018-10-03T20:20:07.880Z,40.70
2018-10-03T20:22:37.682Z,40.60
2018-10-03T20:25:04.619Z,41.20
2018-10-03T20:27:30.826Z,40.60
2018-10-03T20:29:57.279Z,40.60
2018-10-03T20:32:23.470Z,40.60
2018-10-03T20:34:49.612Z,40.60
2018-10-03T20:37:15.854Z,40.60
2018-10-03T20:39:42.135Z,40.60
2018-10-03T20:42:08.320Z,40.70
2018-10-03T20:44:37.462Z,40.60
2018-10-03T20:47:03.721Z,40.50
2018-10-03T20:49:29.969Z,40.60
2018-10-03T20:51:56.212Z,40.40
2018-10-03T20:54:22.415Z,40.60
2018-10-03T20:56:49.492Z,40.70
2018-10-03T20:59:15.676Z,40.70
2018-10-03T21:01:42.223Z,40.60
2018-10-03T21:04:08.532Z,40.50
2018-10-03T21:06:35.573Z,40.50
2018-10-03T21:09:01.846Z,40.50
2018-10-03T21:11:28.227Z,40.40
2018-10-03T21:13:54.420Z,40.30
2018-10-03T21:16:20.568Z,40.30
2018-10-03T21:18:49.597Z,40.30
2018-10-03T21:21:15.936Z,40.60
2018-10-03T21:23:42.088Z,40.40
2018-10-03T21:26:08.299Z,40.40
2018-10-03T21:28:34.451Z,40.30
2018-10-03T21:31:00.968Z,40.40
2018-10-03T21:33:27.129Z,40.30
2018-10-03T21:35:53.282Z,40.30
2018-10-03T21:38:19.512Z,40.30
2018-10-03T21:40:45.756Z,40.10
2018-10-03T21:43:11.951Z,40.40
2018-10-03T21:45:38.096Z,40.30
2018-10-03T21:48:04.264Z,40.30
2018-10-03T21:50:31.194Z,40.30
2018-10-03T21:52:58.344Z,40.10
2018-10-03T21:55:24.612Z,40.00
2018-10-03T21:57:50.757Z,40.20
2018-10-03T22:00:16.916Z,40.10
2018-10-03T22:02:43.104Z,40.20
2018-10-03T22:05:09.387Z,40.20
2018-10-03T22:07:35.536Z,40.30
2018-10-03T22:10:01.703Z,40.30
2018-10-03T22:12:28.634Z,40.20
2018-10-03T22:14:55.563Z,40.90
2018-10-03T22:17:21.716Z,40.10
2018-10-03T22:19:48.680Z,40.30
2018-10-03T22:22:14.836Z,40.30
2018-10-03T22:24:41.453Z,40.10
2018-10-03T22:29:39.635Z,40.20
2018-10-03T22:32:05.844Z,40.20
2018-10-03T22:34:32.844Z,40.20
2018-10-03T22:36:59.021Z,40.00
2018-10-03T22:39:25.930Z,40.30
2018-10-03T22:41:52.101Z,40.10
2018-10-03T22:44:18.256Z,40.10
2018-10-03T22:46:49.501Z,40.10
2018-10-03T22:49:15.654Z,40.10
2018-10-03T22:51:41.824Z,40.00
2018-10-03T22:54:07.980Z,40.00
2018-10-03T22:56:34.299Z,40.10
2018-10-03T22:59:01.464Z,40.10
2018-10-03T23:01:27.628Z,40.00
2018-10-03T23:03:54.964Z,40.10
2018-10-03T23:06:21.936Z,40.00
2018-10-03T23:08:48.119Z,39.90
2018-10-03T23:11:14.280Z,40.00
2018-10-03T23:13:40.527Z,40.00
2018-10-03T23:18:38.809Z,40.10
2018-10-03T23:21:05.042Z,40.10
2018-10-03T23:23:31.248Z,40.10
2018-10-03T23:25:57.395Z,40.10
2018-10-03T23:30:55.597Z,40.00
2018-10-03T23:33:22.696Z,40.30
2018-10-03T23:35:48.836Z,40.20
2018-10-03T23:38:15.064Z,40.20
2018-10-03T23:40:41.441Z,40.10
2018-10-03T23:43:07.759Z,40.10
2018-10-03T23:45:33.898Z,40.10
2018-10-03T23:48:00.845Z,40.10
2018-10-03T23:50:27.021Z,40.00
2018-10-03T23:52:58.897Z,40.00
2018-10-03T23:55:25.064Z,39.90
2018-10-03T23:57:51.254Z,40.00
